createdAt,value
2023-02-25T00:01:38.950Z,8.80
2023-02-25T00:04:05.816Z,9.82
2023-02-25T00:06:32.686Z,9.90
2023-02-25T00:08:59.566Z,10.63
2023-02-25T00:11:26.698Z,9.45
2023-02-25T00:13:53.783Z,9.77
2023-02-25T00:16:22.390Z,9.27
2023-02-25T00:18:56.923Z,9.98
2023-02-25T00:21:24.267Z,9.40
2023-02-25T00:23:51.810Z,9.57
2023-02-25T00:26:19.166Z,9.43
2023-02-25T00:28:46.395Z,10.38
2023-02-25T00:31:20.903Z,9.27
2023-02-25T00:33:48.708Z,10.13
2023-02-25T00:36:21.315Z,9.57
2023-02-25T00:38:52.898Z,8.98
2023-02-25T00:41:22.669Z,9.68
2023-02-25T00:43:52.672Z,9.52
2023-02-25T00:46:21.288Z,9.70
2023-02-25T00:48:48.905Z,9.52
2023-02-25T00:51:18.155Z,8.82
2023-02-25T00:53:45.519Z,9.68
2023-02-25T00:56:15.785Z,9.18
2023-02-25T00:58:44.292Z,10.10
2023-02-25T01:01:31.870Z,9.60
2023-02-25T01:03:59.259Z,9.63
2023-02-25T01:06:28.379Z,10.15
2023-02-25T01:08:55.424Z,9.63
2023-02-25T01:11:27.854Z,10.38
2023-02-25T01:13:56.760Z,9.32
2023-02-25T01:16:25.672Z,9.35
2023-02-25T01:18:54.695Z,9.25
2023-02-25T01:21:25.963Z,9.95
2023-02-25T01:23:58.887Z,9.75
2023-02-25T01:26:27.401Z,9.13
2023-02-25T01:28:54.368Z,9.15
2023-02-25T01:31:29.628Z,9.35
2023-02-25T01:34:01.484Z,9.73
2023-02-25T01:36:30.443Z,9.52
2023-02-25T01:38:57.433Z,9.02
2023-02-25T01:41:25.537Z,10.25
2023-02-25T01:44:34.611Z,9.02
2023-02-25T01:49:44.445Z,9.23
2023-02-25T01:52:16.127Z,8.45
2023-02-25T01:54:45.326Z,9.02
2023-02-25T01:57:13.855Z,7.70
2023-02-25T01:59:42.516Z,8.35
2023-02-25T02:02:10.288Z,7.87
2023-02-25T02:04:38.434Z,8.98
2023-02-25T02:07:06.378Z,8.25
2023-02-25T02:09:33.764Z,8.60
2023-02-25T02:12:02.769Z,9.48
2023-02-25T02:14:34.809Z,8.13
2023-02-25T02:17:14.161Z,7.32
2023-02-25T02:20:07.378Z,7.22
2023-02-25T02:22:43.241Z,6.95
2023-02-25T02:25:46.670Z,7.25
2023-02-25T02:28:51.237Z,7.37
2023-02-25T02:31:33.939Z,7.57
2023-02-25T02:34:36.169Z,8.23
2023-02-25T02:37:30.443Z,7.57
2023-02-25T02:40:19.778Z,7.55
2023-02-25T02:42:55.633Z,8.55
2023-02-25T02:45:44.286Z,7.87
2023-02-25T02:48:17.989Z,8.10
2023-02-25T02:50:51.610Z,7.75
2023-02-25T02:53:50.289Z,7.82
2023-02-25T02:56:19.142Z,7.62
2023-02-25T02:58:53.741Z,7.10
2023-02-25T03:01:28.305Z,7.32
2023-02-25T03:04:00.049Z,7.53
2023-02-25T03:06:33.952Z,7.95
2023-02-25T03:09:15.704Z,6.97
2023-02-25T03:11:42.633Z,7.45
2023-02-25T03:14:10.995Z,8.30
2023-02-25T03:17:10.097Z,8.30
2023-02-25T03:19:49.283Z,8.82
2023-02-25T03:22:20.329Z,7.18
2023-02-25T03:25:00.428Z,7.15
2023-02-25T03:27:34.680Z,7.40
2023-02-25T03:30:13.237Z,6.72
2023-02-25T03:32:42.152Z,7.72
2023-02-25T03:35:11.256Z,7.03
2023-02-25T03:37:40.577Z,7.72
2023-02-25T03:40:13.639Z,7.85
2023-02-25T03:42:53.641Z,8.02
2023-02-25T03:45:21.839Z,7.35
2023-02-25T03:47:49.141Z,7.03
2023-02-25T03:50:24.383Z,6.75
2023-02-25T03:52:51.342Z,7.20
2023-02-25T03:55:18.975Z,7.93
2023-02-25T03:57:49.256Z,7.15
2023-02-25T04:00:19.258Z,7.55
2023-02-25T04:02:47.637Z,8.48
2023-02-25T04:05:16.216Z,8.75
2023-02-25T04:07:43.345Z,7.90
2023-02-25T04:10:13.658Z,7.55
2023-02-25T04:12:40.597Z,7.90
2023-02-25T04:15:08.657Z,8.30
2023-02-25T04:17:35.952Z,8.35
2023-02-25T04:20:04.856Z,7.62
2023-02-25T04:22:31.753Z,7.68
2023-02-25T04:24:58.603Z,6.97
2023-02-25T04:32:20.336Z,7.62
2023-02-25T04:34:47.297Z,7.93
2023-02-25T04:37:14.168Z,10.45
2023-02-25T04:39:41.680Z,10.23
2023-02-25T04:42:08.798Z,9.63
2023-02-25T04:44:36.151Z,8.65
2023-02-25T04:47:03.214Z,8.77
2023-02-25T04:49:30.071Z,7.05
2023-02-25T04:51:57.043Z,6.65
2023-02-25T04:54:23.896Z,5.80
2023-02-25T04:59:17.548Z,4.82
2023-02-25T05:01:44.480Z,4.20
2023-02-25T05:04:11.418Z,4.07
2023-02-25T05:06:39.378Z,3.95
2023-02-25T05:09:06.693Z,3.28
2023-02-25T05:11:34.545Z,2.95
2023-02-25T05:14:01.790Z,2.80
2023-02-25T05:16:28.737Z,2.35
2023-02-25T05:18:55.674Z,3.08
2023-02-25T05:21:24.947Z,2.28
2023-02-25T05:23:53.483Z,1.70
2023-02-25T05:26:22.838Z,1.58
2023-02-25T05:28:51.590Z,1.35
2023-02-25T05:31:19.061Z,0.80
2023-02-25T05:33:46.064Z,0.80
2023-02-25T05:36:15.047Z,0.77
2023-02-25T05:38:42.191Z,1.05
2023-02-25T05:41:10.154Z,0.50
2023-02-25T05:43:38.276Z,0.50
2023-02-25T05:46:09.270Z,0.68
2023-02-25T05:48:36.121Z,0.70
2023-02-25T05:53:31.635Z,0.50
2023-02-25T05:55:58.521Z,0.70
2023-02-25T05:58:25.858Z,0.75
2023-02-25T06:00:54.146Z,0.40
2023-02-25T06:03:21.080Z,0.30
2023-02-25T06:05:48.138Z,0.60
2023-02-25T06:08:15.091Z,0.45
2023-02-25T06:10:41.987Z,0.43
2023-02-25T06:13:09.906Z,0.50
2023-02-25T06:15:41.409Z,0.50
2023-02-25T06:18:08.815Z,0.43
2023-02-25T06:20:35.850Z,0.40
2023-02-25T06:23:03.859Z,0.65
2023-02-25T06:25:31.182Z,0.45
2023-02-25T06:28:01.484Z,0.40
2023-02-25T06:30:30.069Z,0.45
2023-02-25T06:32:57.714Z,0.43
2023-02-25T06:35:25.051Z,0.47
2023-02-25T06:37:59.968Z,0.55
2023-02-25T06:40:28.779Z,0.40
2023-02-25T06:42:55.731Z,0.50
2023-02-25T06:45:24.165Z,1.23
2023-02-25T06:47:51.058Z,0.20
2023-02-25T06:50:18.104Z,1.42
2023-02-25T06:52:44.967Z,0.30
2023-02-25T06:57:38.534Z,0.40
2023-02-25T07:00:06.756Z,0.55
2023-02-25T07:02:33.718Z,0.32
2023-02-25T07:05:01.518Z,0.40
2023-02-25T07:07:29.070Z,0.40
2023-02-25T07:09:55.889Z,0.40
2023-02-25T07:14:50.059Z,0.40
2023-02-25T07:17:16.968Z,0.32
2023-02-25T07:19:43.878Z,0.75
2023-02-25T07:22:16.161Z,0.30
2023-02-25T07:24:43.757Z,0.32
2023-02-25T07:27:10.955Z,0.30
2023-02-25T07:29:37.821Z,0.40
2023-02-25T07:32:05.072Z,0.40
2023-02-25T07:34:32.326Z,0.43
2023-02-25T07:36:59.203Z,0.50
2023-02-25T07:39:26.174Z,0.52
2023-02-25T07:41:53.007Z,0.70
2023-02-25T07:46:46.615Z,0.30
2023-02-25T07:49:13.541Z,0.50
2023-02-25T07:51:40.413Z,0.30
2023-02-25T07:54:07.297Z,0.40
2023-02-25T07:56:34.236Z,0.47
2023-02-25T07:59:01.375Z,0.80
2023-02-25T08:01:31.793Z,0.32
2023-02-25T08:04:00.716Z,0.40
2023-02-25T08:06:28.239Z,0.60
2023-02-25T08:08:55.580Z,0.50
2023-02-25T08:11:24.383Z,0.30
2023-02-25T08:13:51.418Z,0.40
2023-02-25T08:16:20.115Z,0.47
2023-02-25T08:18:47.415Z,0.40
2023-02-25T08:21:18.198Z,0.47
2023-02-25T08:23:45.536Z,0.30
2023-02-25T08:26:12.446Z,0.40
2023-02-25T08:28:39.795Z,0.30
2023-02-25T08:31:08.711Z,0.32
2023-02-25T08:33:35.662Z,0.20
2023-02-25T08:36:11.178Z,0.25
2023-02-25T08:38:38.759Z,0.30
2023-02-25T08:41:06.577Z,0.30
2023-02-25T08:43:33.490Z,0.30
2023-02-25T08:46:01.383Z,0.45
2023-02-25T08:48:28.564Z,0.50
2023-02-25T08:50:55.799Z,0.40
2023-02-25T08:53:23.336Z,0.55
2023-02-25T08:55:51.267Z,0.50
2023-02-25T08:58:18.193Z,0.30
2023-02-25T09:00:45.099Z,0.35
2023-02-25T09:03:11.978Z,0.40
2023-02-25T09:05:38.876Z,0.50
2023-02-25T09:08:05.771Z,0.70
2023-02-25T09:10:48.281Z,0.50
2023-02-25T09:13:17.397Z,0.60
2023-02-25T09:15:44.288Z,0.50
2023-02-25T09:18:11.973Z,0.50
2023-02-25T09:20:39.065Z,0.40
2023-02-25T09:23:06.080Z,0.60
2023-02-25T09:25:32.944Z,0.52
2023-02-25T09:27:59.863Z,0.50
2023-02-25T09:30:26.851Z,0.52
2023-02-25T09:32:53.955Z,0.60
2023-02-25T09:35:20.878Z,0.52
2023-02-25T09:37:47.915Z,0.50
2023-02-25T09:40:22.861Z,0.70
2023-02-25T09:43:20.315Z,0.50
2023-02-25T09:45:49.874Z,0.65
2023-02-25T09:48:26.074Z,0.75
2023-02-25T09:50:56.922Z,0.70
2023-02-25T09:53:33.197Z,0.60
2023-02-25T09:56:00.210Z,0.73
2023-02-25T09:58:32.996Z,0.60
2023-02-25T10:01:12.326Z,0.57
2023-02-25T10:03:59.313Z,0.75
2023-02-25T10:06:37.451Z,0.60
2023-02-25T10:09:19.198Z,0.62
2023-02-25T10:11:53.774Z,0.60
2023-02-25T10:14:43.187Z,0.62
2023-02-25T10:17:14.739Z,0.60
2023-02-25T10:19:41.528Z,0.70
2023-02-25T10:25:38.149Z,0.70
2023-02-25T10:28:07.828Z,0.70
2023-02-25T10:30:49.345Z,0.60
2023-02-25T10:33:24.525Z,0.60
2023-02-25T10:36:01.436Z,0.57
2023-02-25T10:38:28.335Z,1.00
2023-02-25T10:48:38.775Z,0.62
2023-02-25T10:51:15.305Z,0.70
2023-02-25T10:54:02.990Z,0.80
2023-02-25T10:56:44.144Z,0.80
2023-02-25T10:59:33.513Z,0.68
2023-02-25T11:02:01.341Z,0.73
2023-02-25T11:04:33.696Z,0.90
2023-02-25T11:07:00.576Z,0.70
2023-02-25T11:09:31.628Z,0.90
2023-02-25T11:12:08.686Z,0.85
2023-02-25T11:14:37.622Z,0.60
2023-02-25T11:17:14.744Z,1.00
2023-02-25T11:19:47.553Z,0.70
2023-02-25T11:22:29.055Z,0.80
2023-02-25T11:24:59.895Z,0.90
2023-02-25T11:27:35.635Z,0.62
2023-02-25T11:30:09.404Z,1.00
2023-02-25T11:32:41.355Z,0.90
2023-02-25T11:35:10.375Z,1.05
2023-02-25T11:37:45.496Z,0.80
2023-02-25T11:40:30.767Z,0.88
2023-02-25T11:43:01.968Z,0.82
2023-02-25T11:45:34.707Z,0.90
2023-02-25T11:48:04.435Z,0.90
2023-02-25T11:50:53.017Z,1.02
2023-02-25T11:53:38.324Z,0.82
2023-02-25T11:56:13.270Z,1.10
2023-02-25T11:59:15.382Z,0.80
2023-02-25T12:02:01.314Z,1.12
2023-02-25T12:04:44.809Z,0.77
2023-02-25T12:07:22.554Z,0.60
2023-02-25T12:09:49.375Z,0.90
2023-02-25T12:15:15.342Z,0.80
2023-02-25T12:17:42.137Z,1.33
2023-02-25T12:23:35.411Z,0.77
2023-02-25T12:26:49.642Z,0.98
2023-02-25T12:29:38.620Z,0.80
2023-02-25T12:32:32.920Z,1.20
2023-02-25T12:35:35.881Z,1.10
2023-02-25T12:38:16.162Z,0.75
2023-02-25T12:41:04.629Z,0.90
2023-02-25T12:43:53.152Z,0.90
2023-02-25T12:46:33.377Z,1.10
2023-02-25T12:49:19.450Z,0.93
2023-02-25T12:52:04.385Z,0.70
2023-02-25T12:54:59.146Z,1.00
2023-02-25T12:58:06.625Z,0.95
2023-02-25T13:00:56.934Z,0.80
2023-02-25T13:03:41.739Z,1.00
2023-02-25T13:06:45.849Z,0.93
2023-02-25T13:09:31.592Z,0.80
2023-02-25T13:12:28.629Z,0.95
2023-02-25T13:15:14.503Z,1.00
2023-02-25T13:18:07.227Z,0.88
2023-02-25T13:20:43.652Z,1.02
2023-02-25T13:23:41.480Z,1.00
2023-02-25T13:26:30.582Z,0.80
2023-02-25T13:29:09.543Z,1.00
2023-02-25T13:31:46.752Z,0.80
2023-02-25T13:34:25.568Z,0.60
2023-02-25T13:37:13.640Z,0.80
2023-02-25T13:39:59.491Z,0.55
2023-02-25T13:42:41.588Z,0.70
2023-02-25T13:45:31.755Z,0.80
2023-02-25T13:48:11.884Z,0.57
2023-02-25T13:50:51.452Z,0.70
2023-02-25T13:53:53.739Z,0.80
2023-02-25T13:56:44.746Z,0.90
2023-02-25T13:59:20.766Z,0.93
2023-02-25T14:01:57.077Z,0.62
2023-02-25T14:04:45.218Z,0.80
2023-02-25T14:07:53.145Z,0.62
2023-02-25T14:10:35.232Z,1.05
2023-02-25T14:13:20.255Z,0.75
2023-02-25T14:16:05.937Z,0.60
2023-02-25T14:18:35.922Z,0.80
2023-02-25T14:21:21.294Z,0.60
2023-02-25T14:23:59.342Z,0.65
2023-02-25T14:26:54.251Z,0.70
2023-02-25T14:29:38.340Z,0.82
2023-02-25T14:32:39.602Z,0.70
2023-02-25T14:35:34.573Z,0.80
2023-02-25T14:38:22.258Z,0.82
2023-02-25T14:40:54.029Z,0.65
2023-02-25T14:43:29.760Z,0.95
2023-02-25T14:46:15.597Z,0.68
2023-02-25T14:48:49.126Z,0.82
2023-02-25T14:51:32.728Z,1.55
2023-02-25T14:54:11.585Z,0.60
2023-02-25T14:57:08.227Z,0.88
2023-02-25T14:59:53.666Z,0.73
2023-02-25T15:02:37.167Z,0.68
2023-02-25T15:05:31.074Z,0.45
2023-02-25T15:08:04.063Z,0.60
2023-02-25T15:10:44.921Z,0.55
2023-02-25T15:13:43.007Z,0.43
2023-02-25T15:16:28.378Z,0.60
2023-02-25T15:19:19.749Z,0.70
2023-02-25T15:21:49.301Z,0.70
2023-02-25T15:24:28.146Z,0.50
2023-02-25T15:26:56.368Z,0.62
2023-02-25T15:29:32.648Z,0.60
2023-02-25T15:32:25.277Z,0.90
2023-02-25T15:34:56.522Z,0.75
2023-02-25T15:37:30.327Z,0.57
2023-02-25T15:40:15.185Z,0.60
2023-02-25T15:42:57.246Z,0.70
2023-02-25T15:45:27.535Z,0.60
2023-02-25T15:48:07.056Z,0.80
2023-02-25T15:50:42.890Z,0.70
2023-02-25T15:53:25.784Z,0.70
2023-02-25T15:55:54.591Z,0.70
2023-02-25T15:58:24.393Z,0.65
2023-02-25T16:00:54.483Z,0.90
2023-02-25T16:03:35.744Z,0.60
2023-02-25T16:06:07.396Z,0.60
2023-02-25T16:08:44.349Z,0.80
2023-02-25T16:11:23.086Z,0.88
2023-02-25T16:13:50.450Z,0.70
2023-02-25T16:16:17.651Z,0.90
2023-02-25T16:18:50.600Z,0.80
2023-02-25T16:21:34.205Z,0.70
2023-02-25T16:24:01.196Z,0.95
2023-02-25T16:26:44.544Z,1.00
2023-02-25T16:29:26.345Z,1.00
2023-02-25T16:32:32.642Z,1.00
2023-02-25T16:35:01.758Z,1.00
2023-02-25T16:37:41.178Z,0.77
2023-02-25T16:40:24.551Z,0.80
2023-02-25T16:42:52.273Z,0.60
2023-02-25T16:45:26.584Z,0.70
2023-02-25T16:47:57.236Z,0.80
2023-02-25T16:50:25.207Z,0.60
2023-02-25T16:52:52.143Z,1.10
2023-02-25T16:55:31.820Z,0.93
2023-02-25T16:58:14.368Z,0.90
2023-02-25T17:00:56.266Z,0.73
2023-02-25T17:03:28.579Z,0.80
2023-02-25T17:06:00.312Z,0.80
2023-02-25T17:08:27.306Z,0.90
2023-02-25T17:10:56.864Z,0.80
2023-02-25T17:13:26.881Z,0.70
2023-02-25T17:15:53.967Z,1.17
2023-02-25T17:18:24.799Z,1.00
2023-02-25T17:20:53.813Z,0.80
2023-02-25T17:23:20.776Z,0.77
2023-02-25T17:25:49.244Z,1.00
2023-02-25T17:28:22.288Z,0.80
2023-02-25T17:30:49.590Z,0.68
2023-02-25T17:33:22.234Z,0.85
2023-02-25T17:35:53.600Z,0.70
2023-02-25T17:38:22.567Z,0.90
2023-02-25T17:40:51.008Z,0.90
2023-02-25T17:43:22.024Z,0.73
2023-02-25T17:45:53.221Z,0.80
2023-02-25T17:48:26.717Z,1.00
2023-02-25T17:51:06.193Z,0.80
2023-02-25T17:53:47.581Z,1.08
2023-02-25T17:56:16.191Z,1.00
2023-02-25T17:58:45.138Z,1.02
2023-02-25T18:01:23.047Z,1.00
2023-02-25T18:03:51.206Z,0.90
2023-02-25T18:06:41.152Z,0.98
2023-02-25T18:09:45.683Z,0.90
2023-02-25T18:12:35.602Z,0.93
2023-02-25T18:15:04.733Z,0.88
2023-02-25T18:17:34.401Z,0.90
2023-02-25T18:20:03.828Z,1.12
2023-02-25T18:22:30.731Z,0.85
2023-02-25T18:25:01.313Z,0.90
2023-02-25T18:27:30.923Z,1.08
2023-02-25T18:30:00.733Z,1.20
2023-02-25T18:32:27.771Z,0.95
2023-02-25T18:34:54.693Z,1.08
2023-02-25T18:37:21.821Z,1.10
2023-02-25T18:39:48.953Z,1.05
2023-02-25T18:42:17.253Z,1.00
2023-02-25T18:44:45.764Z,1.00
2023-02-25T18:47:12.755Z,1.02
2023-02-25T18:49:39.874Z,1.25
2023-02-25T18:52:14.186Z,1.27
2023-02-25T18:54:41.730Z,1.10
2023-02-25T18:57:24.828Z,1.10
2023-02-25T18:59:52.660Z,1.08
2023-02-25T19:02:31.201Z,1.20
2023-02-25T19:04:58.402Z,1.12
2023-02-25T19:07:27.228Z,0.95
2023-02-25T19:09:55.963Z,1.23
2023-02-25T19:12:24.776Z,1.80
2023-02-25T19:14:57.821Z,1.65
2023-02-25T19:17:24.956Z,1.80
2023-02-25T19:19:51.850Z,1.62
2023-02-25T19:22:18.923Z,2.00
2023-02-25T19:24:48.107Z,1.48
2023-02-25T19:27:19.559Z,1.48
2023-02-25T19:29:50.493Z,1.58
2023-02-25T19:32:18.346Z,1.70
2023-02-25T19:34:48.913Z,1.83
2023-02-25T19:37:17.922Z,1.70
2023-02-25T19:39:44.818Z,1.77
2023-02-25T19:42:12.719Z,1.55
2023-02-25T19:44:39.586Z,1.55
2023-02-25T19:47:08.097Z,1.87
2023-02-25T19:49:35.016Z,1.30
2023-02-25T19:52:01.854Z,1.73
2023-02-25T19:56:55.424Z,1.50
2023-02-25T20:01:49.872Z,1.55
2023-02-25T20:04:16.942Z,1.27
2023-02-25T20:06:43.930Z,1.50
2023-02-25T20:09:10.980Z,1.60
2023-02-25T20:11:37.939Z,1.40
2023-02-25T20:14:05.651Z,1.30
2023-02-25T20:16:33.294Z,1.75
2023-02-25T20:19:00.578Z,1.35
2023-02-25T20:21:28.424Z,1.60
2023-02-25T20:23:58.380Z,2.22
2023-02-25T20:26:28.695Z,2.12
2023-02-25T20:28:56.143Z,1.50
2023-02-25T20:31:24.357Z,1.40
2023-02-25T20:33:54.029Z,1.60
2023-02-25T20:36:30.292Z,1.50
2023-02-25T20:39:15.908Z,1.40
2023-02-25T20:41:44.596Z,1.42
2023-02-25T20:44:11.961Z,1.23
2023-02-25T20:46:39.881Z,1.40
2023-02-25T20:49:08.366Z,1.60
2023-02-25T20:51:35.495Z,1.60
2023-02-25T20:54:03.910Z,1.65
2023-02-25T20:56:34.359Z,1.42
2023-02-25T20:59:01.322Z,1.55
2023-02-25T21:01:28.660Z,1.40
2023-02-25T21:03:56.008Z,1.50
2023-02-25T21:06:24.499Z,1.50
2023-02-25T21:08:52.571Z,1.77
2023-02-25T21:11:24.197Z,1.60
2023-02-25T21:13:55.005Z,1.40
2023-02-25T21:16:23.764Z,1.45
2023-02-25T21:18:51.659Z,1.67
2023-02-25T21:21:20.497Z,1.73
2023-02-25T21:23:47.634Z,1.55
2023-02-25T21:26:14.910Z,1.67
2023-02-25T21:28:41.926Z,1.55
2023-02-25T21:31:11.171Z,1.52
2023-02-25T21:33:38.990Z,1.40
2023-02-25T21:36:07.226Z,1.60
2023-02-25T21:38:34.786Z,1.58
2023-02-25T21:41:10.505Z,1.80
2023-02-25T21:43:37.884Z,1.42
2023-02-25T21:46:07.876Z,1.60
2023-02-25T21:48:35.037Z,1.37
2023-02-25T21:51:02.584Z,1.75
2023-02-25T21:53:29.503Z,2.03
2023-02-25T21:55:59.852Z,1.45
2023-02-25T21:58:28.100Z,1.80
2023-02-25T22:00:54.970Z,1.67
2023-02-25T22:03:21.902Z,1.75
2023-02-25T22:05:48.741Z,1.83
2023-02-25T22:10:42.291Z,1.73
2023-02-25T22:13:09.170Z,1.87
2023-02-25T22:15:36.066Z,1.80
2023-02-25T22:18:03.080Z,2.00
2023-02-25T22:20:29.984Z,2.10
2023-02-25T22:22:58.177Z,1.85
2023-02-25T22:25:25.050Z,2.00
2023-02-25T22:27:52.293Z,2.50
2023-02-25T22:30:19.295Z,2.10
2023-02-25T22:32:46.206Z,1.90
2023-02-25T22:35:13.104Z,2.20
2023-02-25T22:37:40.003Z,2.20
2023-02-25T22:40:07.317Z,2.30
2023-02-25T22:42:34.382Z,2.17
2023-02-25T22:45:01.453Z,2.30
2023-02-25T22:47:28.319Z,2.20
2023-02-25T22:49:55.155Z,2.25
2023-02-25T22:54:48.694Z,1.80
2023-02-25T22:57:16.030Z,2.85
2023-02-25T22:59:42.890Z,3.00
2023-02-25T23:02:09.743Z,1.83
2023-02-25T23:07:03.540Z,2.70
2023-02-25T23:11:57.443Z,2.37
2023-02-25T23:14:24.325Z,2.25
2023-02-25T23:16:51.597Z,2.40
2023-02-25T23:19:19.834Z,1.90
2023-02-25T23:21:46.703Z,2.30
2023-02-25T23:24:16.537Z,2.60
2023-02-25T23:26:44.779Z,2.58
2023-02-25T23:29:12.577Z,2.50
2023-02-25T23:31:44.253Z,2.47
2023-02-25T23:34:13.900Z,2.30
2023-02-25T23:36:42.483Z,2.65
2023-02-25T23:39:10.458Z,2.55
2023-02-25T23:41:38.624Z,2.53
2023-02-25T23:44:08.580Z,2.97
2023-02-25T23:46:36.413Z,2.70
2023-02-25T23:49:07.275Z,2.70
2023-02-25T23:51:35.179Z,2.80
2023-02-25T23:54:05.234Z,2.90
2023-02-25T23:56:32.639Z,2.45
2023-02-25T23:58:59.928Z,2.50
